Time;durP1;ratioP1;P1;durP2;ratioP2;P2;SDS_P1;SDS_P2;PMS_P1;PMS_P2;Temp;Humidity;BMP_temperature;BMP_pressure;BME280_temperature;BME280_humidity;BME280_pressure;Samples;Min_cycle;Max_cycle;Signal;HPM_P1;HPM_P2
2023/09/22 00:00:10;;;;;;;13.63;10.85;;;15.30;99.90;;;;;;4954636;28;20051;-72
2023/09/22 00:02:37;;;;;;;13.80;11.00;;;15.20;99.90;;;;;;4956633;28;20509;-72
2023/09/22 00:05:03;;;;;;;18.38;13.38;;;15.30;99.90;;;;;;4957423;28;20023;-72
2023/09/22 00:07:29;;;;;;;14.70;12.68;;;15.20;99.90;;;;;;4956513;28;20019;-72
2023/09/22 00:09:55;;;;;;;15.20;12.27;;;15.20;99.90;;;;;;4957148;29;20363;-73
2023/09/22 00:12:21;;;;;;;16.95;12.80;;;15.20;99.90;;;;;;4956617;28;20027;-72
2023/09/22 00:14:47;;;;;;;18.13;13.98;;;15.20;99.90;;;;;;4956981;29;20027;-72
2023/09/22 00:17:12;;;;;;;18.92;13.30;;;15.10;99.90;;;;;;4955071;29;20023;-72
2023/09/22 00:19:38;;;;;;;20.75;14.80;;;15.20;99.90;;;;;;4957045;28;20027;-72
2023/09/22 00:22:05;;;;;;;19.15;15.18;;;15.10;99.90;;;;;;4956488;29;20114;-72
2023/09/22 00:24:31;;;;;;;20.92;16.63;;;15.10;99.90;;;;;;4957067;28;20028;-72
2023/09/22 00:26:57;;;;;;;20.25;16.65;;;15.10;99.90;;;;;;4956473;28;20055;-72
2023/09/22 00:29:22;;;;;;;22.27;18.50;;;15.00;99.90;;;;;;4956723;28;20082;-72
2023/09/22 00:31:48;;;;;;;20.63;15.50;;;15.00;99.90;;;;;;4956167;28;20027;-72
2023/09/22 00:34:14;;;;;;;23.65;17.55;;;15.00;99.90;;;;;;4956540;29;20074;-72
2023/09/22 00:36:39;;;;;;;26.02;17.58;;;15.00;99.90;;;;;;4956506;28;20117;-72
2023/09/22 00:39:05;;;;;;;29.92;18.80;;;15.00;99.90;;;;;;4956503;28;20390;-73
2023/09/22 00:41:31;;;;;;;26.42;20.00;;;15.00;99.90;;;;;;4956470;29;20506;-73
2023/09/22 00:43:56;;;;;;;28.77;19.88;;;15.00;99.90;;;;;;4938680;29;20038;-73
2023/09/22 00:46:25;;;;;;;25.98;19.45;;;15.00;99.90;;;;;;4956599;29;20457;-73
2023/09/22 00:48:52;;;;;;;24.60;18.50;;;14.90;99.90;;;;;;4955864;29;20060;-73
2023/09/22 00:51:19;;;;;;;25.67;19.20;;;14.90;99.90;;;;;;4956228;29;20020;-73
2023/09/22 00:53:47;;;;;;;26.05;19.27;;;14.90;99.90;;;;;;4955545;29;20027;-73
2023/09/22 00:56:15;;;;;;;25.40;18.63;;;14.90;99.90;;;;;;4939106;29;20533;-73
2023/09/22 00:58:41;;;;;;;28.67;20.23;;;14.90;99.90;;;;;;4955632;29;20035;-73
2023/09/22 01:01:07;;;;;;;24.52;17.58;;;14.90;99.90;;;;;;4938871;29;20398;-73
2023/09/22 01:03:32;;;;;;;29.55;20.20;;;14.90;99.90;;;;;;4938395;29;20023;-73
2023/09/22 01:05:58;;;;;;;30.38;20.95;;;14.90;99.90;;;;;;4956143;29;20398;-73
2023/09/22 01:08:24;;;;;;;31.20;21.73;;;14.90;99.90;;;;;;4955395;28;20034;-73
2023/09/22 01:10:49;;;;;;;32.92;21.98;;;14.90;99.90;;;;;;4955865;28;20102;-73
2023/09/22 01:13:15;;;;;;;27.30;20.02;;;14.90;99.90;;;;;;4937303;29;20486;-73
2023/09/22 01:15:41;;;;;;;28.35;19.45;;;14.90;99.90;;;;;;4938626;29;20023;-73
2023/09/22 01:18:07;;;;;;;23.10;16.90;;;14.80;99.90;;;;;;4955281;29;20043;-73
2023/09/22 01:20:43;;;;;;;27.25;18.50;;;14.80;99.90;;;;;;4955798;29;20065;-73
2023/09/22 01:23:09;;;;;;;27.85;17.25;;;14.70;99.90;;;;;;4955471;29;20020;-73
2023/09/22 01:25:36;;;;;;;20.38;14.93;;;14.70;99.90;;;;;;4955690;29;20083;-72
2023/09/22 01:28:02;;;;;;;28.50;18.75;;;14.60;99.90;;;;;;4955052;29;20106;-73
2023/09/22 01:30:28;;;;;;;30.05;18.10;;;14.60;99.90;;;;;;4938636;29;20118;-73
2023/09/22 01:32:53;;;;;;;27.40;19.48;;;14.60;99.90;;;;;;4937605;29;20038;-73
2023/09/22 01:35:19;;;;;;;27.67;18.58;;;14.60;99.90;;;;;;4955596;29;20078;-73
2023/09/22 01:37:58;;;;;;;24.13;17.58;;;14.60;99.90;;;;;;4954907;29;20019;-72
2023/09/22 01:40:24;;;;;;;25.88;18.02;;;14.50;99.90;;;;;;4955437;29;20405;-73
2023/09/22 01:42:49;;;;;;;24.98;18.45;;;14.50;99.90;;;;;;4954996;29;20023;-73
2023/09/22 01:45:15;;;;;;;21.63;15.75;;;14.50;99.90;;;;;;4955583;29;20103;-73
2023/09/22 01:47:41;;;;;;;19.70;13.43;;;14.40;99.90;;;;;;4954713;29;20015;-73
2023/09/22 01:50:08;;;;;;;21.45;14.23;;;14.40;99.90;;;;;;4938175;29;20026;-73
2023/09/22 01:52:34;;;;;;;18.52;13.52;;;14.30;99.90;;;;;;4954742;29;20023;-73
2023/09/22 01:54:59;;;;;;;16.27;11.38;;;14.30;99.90;;;;;;4955336;29;20012;-72
2023/09/22 01:57:25;;;;;;;16.02;11.95;;;14.30;99.90;;;;;;4954948;29;20050;-73
2023/09/22 01:59:51;;;;;;;22.30;13.55;;;14.30;99.90;;;;;;4955115;29;20047;-73
2023/09/22 02:02:16;;;;;;;17.55;11.70;;;14.20;99.90;;;;;;4954736;29;20023;-73
2023/09/22 02:04:42;;;;;;;20.55;12.68;;;14.20;99.90;;;;;;4954874;29;20494;-73
2023/09/22 02:07:08;;;;;;;20.25;12.80;;;14.20;99.90;;;;;;4955033;28;20457;-73
2023/09/22 02:09:34;;;;;;;21.02;13.52;;;14.20;99.90;;;;;;4954946;29;20028;-73
2023/09/22 02:12:00;;;;;;;22.42;13.23;;;14.10;99.90;;;;;;4954813;29;20046;-73
2023/09/22 02:14:25;;;;;;;21.55;13.38;;;14.20;99.90;;;;;;4954589;29;20490;-73
2023/09/22 02:16:51;;;;;;;18.20;11.93;;;14.10;99.90;;;;;;4954830;29;20508;-73
2023/09/22 02:19:17;;;;;;;20.80;12.43;;;14.10;99.90;;;;;;4954199;29;20438;-73
2023/09/22 02:21:43;;;;;;;16.95;11.68;;;14.10;99.90;;;;;;4937514;29;20061;-73
2023/09/22 02:24:09;;;;;;;18.20;11.15;;;14.10;99.90;;;;;;4953972;28;20027;-73
2023/09/22 02:26:35;;;;;;;19.45;12.70;;;14.10;99.90;;;;;;4954537;29;20461;-73
2023/09/22 02:29:01;;;;;;;17.83;11.35;;;14.10;99.90;;;;;;4954164;29;20027;-73
2023/09/22 02:31:27;;;;;;;19.67;11.90;;;14.10;99.90;;;;;;4953290;29;20073;-73
2023/09/22 02:33:53;;;;;;;17.75;10.95;;;14.10;99.90;;;;;;4954034;29;20034;-73
2023/09/22 02:36:19;;;;;;;18.30;11.82;;;14.00;99.90;;;;;;4954516;29;20027;-73
2023/09/22 02:38:45;;;;;;;20.15;11.18;;;14.00;99.90;;;;;;4953845;29;20026;-72
2023/09/22 02:41:14;;;;;;;16.88;11.40;;;13.90;99.90;;;;;;4954326;29;20429;-73
2023/09/22 02:43:39;;;;;;;15.93;10.25;;;13.90;99.90;;;;;;4953884;29;20023;-73
2023/09/22 02:46:05;;;;;;;16.42;9.93;;;13.90;99.90;;;;;;4937386;29;20053;-73
2023/09/22 02:48:31;;;;;;;16.73;9.68;;;13.80;99.90;;;;;;4953697;29;20074;-73
2023/09/22 02:50:57;;;;;;;15.10;9.50;;;13.90;99.90;;;;;;4954137;29;20019;-73
2023/09/22 02:53:23;;;;;;;16.63;9.55;;;13.80;99.90;;;;;;4953815;29;20035;-73
2023/09/22 02:55:48;;;;;;;13.23;8.65;;;13.80;99.90;;;;;;4954275;29;20494;-72
2023/09/22 02:58:14;;;;;;;13.35;8.77;;;13.80;99.90;;;;;;4953553;29;20019;-73
2023/09/22 03:00:44;;;;;;;15.32;8.82;;;13.70;99.90;;;;;;4954174;29;20074;-72
2023/09/22 03:03:12;;;;;;;16.55;9.07;;;13.70;99.90;;;;;;4953364;29;20050;-73
2023/09/22 03:05:38;;;;;;;15.52;8.25;;;13.70;99.90;;;;;;4954119;29;20058;-73
2023/09/22 03:08:04;;;;;;;13.98;9.25;;;13.70;99.90;;;;;;4953507;28;20045;-73
2023/09/22 03:10:33;;;;;;;17.92;9.35;;;13.60;99.90;;;;;;4954213;29;20098;-72
2023/09/22 03:12:59;;;;;;;17.92;9.23;;;13.60;99.90;;;;;;4953394;29;20019;-73
2023/09/22 03:15:25;;;;;;;19.70;10.77;;;13.60;99.90;;;;;;4936797;29;20064;-72
2023/09/22 03:17:51;;;;;;;14.75;9.73;;;13.60;99.90;;;;;;4953223;29;20418;-73
2023/09/22 03:20:17;;;;;;;22.63;10.63;;;13.60;99.90;;;;;;4954100;29;20070;-73
2023/09/22 03:22:43;;;;;;;19.38;10.57;;;13.50;99.90;;;;;;4953720;29;20102;-72
2023/09/22 03:25:10;;;;;;;19.73;10.30;;;13.60;99.90;;;;;;4953806;29;20023;-73
2023/09/22 03:27:36;;;;;;;18.17;10.77;;;13.60;99.90;;;;;;4953652;29;20023;-73
2023/09/22 03:30:05;;;;;;;19.75;11.02;;;13.60;99.90;;;;;;4953910;29;20019;-72
2023/09/22 03:32:31;;;;;;;21.92;10.70;;;13.60;99.90;;;;;;4953391;29;20027;-73
2023/09/22 03:35:00;;;;;;;19.80;11.40;;;13.60;99.90;;;;;;4954650;28;20045;-72
2023/09/22 03:37:27;;;;;;;20.80;10.68;;;13.60;99.90;;;;;;4957724;29;20019;-73
2023/09/22 03:40:09;;;;;;;19.13;10.60;;;13.60;99.90;;;;;;4957372;29;20577;-72
2023/09/22 03:42:35;;;;;;;16.25;9.98;;;13.70;99.90;;;;;;4957298;29;20046;-73
2023/09/22 03:45:00;;;;;;;19.52;10.82;;;13.60;99.90;;;;;;4956019;29;20049;-72
2023/09/22 03:47:27;;;;;;;20.02;11.30;;;13.70;99.90;;;;;;4940300;29;20117;-72
2023/09/22 03:49:52;;;;;;;18.85;10.68;;;13.70;99.90;;;;;;4957349;29;20482;-73
2023/09/22 03:52:18;;;;;;;23.73;11.55;;;13.70;99.90;;;;;;4957428;29;20030;-72
2023/09/22 03:54:43;;;;;;;19.75;10.43;;;13.70;99.90;;;;;;4957033;29;20020;-73
2023/09/22 03:57:09;;;;;;;20.52;10.63;;;13.70;99.90;;;;;;4957334;29;20034;-73
2023/09/22 03:59:35;;;;;;;20.73;10.32;;;13.70;99.90;;;;;;4956598;29;20020;-73
2023/09/22 04:02:01;;;;;;;16.42;10.35;;;13.70;99.90;;;;;;4957235;29;20023;-72
2023/09/22 04:04:30;;;;;;;19.85;11.30;;;13.80;99.90;;;;;;4956722;29;20074;-72
2023/09/22 04:06:57;;;;;;;19.83;10.52;;;13.80;99.90;;;;;;4939881;28;20089;-73
2023/09/22 04:09:23;;;;;;;16.00;8.75;;;13.70;99.90;;;;;;4956560;29;20031;-72
2023/09/22 04:11:49;;;;;;;18.08;8.52;;;13.70;99.90;;;;;;4957143;29;20613;-72
2023/09/22 04:14:15;;;;;;;0.03;0.03;;;13.70;99.90;;;;;;4939107;29;20019;-72
2023/09/22 04:16:40;;;;;;;10.93;6.97;;;13.70;99.90;;;;;;4957098;29;20023;-72
2023/09/22 04:19:09;;;;;;;17.63;8.90;;;13.80;99.90;;;;;;4939159;29;20024;-72
2023/09/22 04:21:42;;;;;;;26.23;11.05;;;13.70;99.90;;;;;;4957061;29;20031;-71
2023/09/22 04:24:09;;;;;;;22.63;9.95;;;13.80;99.90;;;;;;4955070;29;20062;-72
2023/09/22 04:26:42;;;;;;;18.58;9.60;;;13.80;99.90;;;;;;4939534;29;20032;-73
2023/09/22 04:29:09;;;;;;;16.95;8.50;;;13.80;99.90;;;;;;4956486;29;20054;-73
2023/09/22 04:31:34;;;;;;;13.90;8.68;;;13.80;99.90;;;;;;4957017;29;20031;-73
2023/09/22 04:34:01;;;;;;;14.77;8.52;;;13.80;99.90;;;;;;4938843;29;20105;-72
2023/09/22 04:36:27;;;;;;;15.95;9.65;;;13.80;99.90;;;;;;4956740;29;20024;-72
2023/09/22 04:38:53;;;;;;;13.88;7.90;;;13.80;99.90;;;;;;4956009;29;20471;-72
2023/09/22 04:41:21;;;;;;;13.85;7.45;;;13.80;99.90;;;;;;4956396;29;20051;-73
2023/09/22 04:43:48;;;;;;;11.60;6.43;;;13.90;99.90;;;;;;4956236;29;20375;-72
2023/09/22 04:46:15;;;;;;;11.68;6.90;;;13.90;99.90;;;;;;4956393;28;20106;-72
2023/09/22 04:48:41;;;;;;;15.05;7.18;;;13.90;99.90;;;;;;4954644;29;20082;-73
2023/09/22 04:51:06;;;;;;;13.30;6.60;;;13.90;99.90;;;;;;4956357;29;20035;-73
2023/09/22 04:53:33;;;;;;;13.57;6.72;;;13.90;99.90;;;;;;4955571;29;20029;-72
2023/09/22 04:56:06;;;;;;;9.30;5.72;;;13.90;99.90;;;;;;4956326;29;20027;-73
2023/09/22 04:58:32;;;;;;;11.30;6.00;;;13.90;99.90;;;;;;4955822;29;20103;-73
2023/09/22 05:01:01;;;;;;;10.75;6.25;;;13.90;99.90;;;;;;4956288;29;20102;-73
2023/09/22 05:03:28;;;;;;;12.52;6.32;;;13.90;99.90;;;;;;4938310;29;20028;-73
2023/09/22 05:05:54;;;;;;;12.20;6.75;;;13.90;99.90;;;;;;4956211;29;20094;-73
2023/09/22 05:08:20;;;;;;;14.80;6.90;;;13.90;99.90;;;;;;4955506;28;20028;-73
2023/09/22 05:10:49;;;;;;;12.68;6.57;;;13.90;99.90;;;;;;4955902;29;20047;-73
2023/09/22 05:13:18;;;;;;;9.15;5.93;;;13.90;99.90;;;;;;4955617;29;20156;-73
2023/09/22 05:15:45;;;;;;;11.45;5.88;;;13.90;99.90;;;;;;4938659;29;20067;-73
2023/09/22 05:18:14;;;;;;;10.73;6.25;;;13.90;99.90;;;;;;4938019;29;20023;-73
2023/09/22 05:20:42;;;;;;;13.13;6.97;;;13.90;99.90;;;;;;4955805;29;20504;-73
2023/09/22 05:23:08;;;;;;;12.45;6.80;;;13.90;99.90;;;;;;4955295;29;20557;-73
2023/09/22 05:25:43;;;;;;;10.00;5.70;;;13.90;99.90;;;;;;4955799;29;20167;-73
2023/09/22 05:28:10;;;;;;;9.98;5.75;;;13.90;99.90;;;;;;4955333;29;20020;-72
2023/09/22 05:30:40;;;;;;;10.15;5.63;;;13.90;99.90;;;;;;4955745;29;20027;-72
2023/09/22 05:33:07;;;;;;;11.80;5.75;;;13.90;99.90;;;;;;4955404;29;20082;-73
2023/09/22 05:35:35;;;;;;;10.80;6.05;;;13.90;99.90;;;;;;4955372;29;20023;-72
2023/09/22 05:38:02;;;;;;;11.90;5.45;;;13.80;99.90;;;;;;4955223;29;20019;-72
2023/09/22 05:40:28;;;;;;;13.85;5.70;;;13.80;99.90;;;;;;4955295;29;20043;-72
2023/09/22 05:42:54;;;;;;;8.75;5.43;;;13.80;99.90;;;;;;4955162;29;20034;-72
2023/09/22 05:45:19;;;;;;;11.63;6.68;;;13.80;99.90;;;;;;4955216;29;20023;-72
2023/09/22 05:47:45;;;;;;;13.38;5.50;;;13.80;99.90;;;;;;4955184;29;20114;-72
2023/09/22 05:50:11;;;;;;;9.32;6.03;;;13.70;99.90;;;;;;4953658;29;20091;-72
2023/09/22 05:52:40;;;;;;;12.65;5.35;;;13.70;99.90;;;;;;4955409;29;20126;-72
2023/09/22 05:55:06;;;;;;;9.20;4.93;;;13.70;99.90;;;;;;4953434;29;20038;-72
2023/09/22 05:57:34;;;;;;;8.45;4.95;;;13.70;99.90;;;;;;4954667;28;20023;-72
2023/09/22 05:59:59;;;;;;;7.82;4.80;;;13.70;99.90;;;;;;4954448;29;20470;-72
2023/09/22 06:02:25;;;;;;;11.68;5.40;;;13.60;99.90;;;;;;4955103;29;20028;-72
2023/09/22 06:04:55;;;;;;;8.63;4.47;;;13.70;99.90;;;;;;4954239;29;20099;-72
2023/09/22 06:07:22;;;;;;;8.57;4.43;;;13.70;99.90;;;;;;4955164;28;20110;-72
2023/09/22 06:09:48;;;;;;;9.15;4.75;;;13.70;99.90;;;;;;4954319;29;20482;-72
2023/09/22 06:12:14;;;;;;;12.02;4.95;;;13.60;99.90;;;;;;4954906;29;20042;-72
2023/09/22 06:14:39;;;;;;;9.68;3.88;;;13.70;99.90;;;;;;4954130;29;20019;-72
2023/09/22 06:17:05;;;;;;;7.63;3.97;;;13.70;99.90;;;;;;4954983;29;20027;-72
2023/09/22 06:19:31;;;;;;;6.43;3.55;;;13.70;99.90;;;;;;4954079;29;20468;-72
2023/09/22 06:21:57;;;;;;;9.93;3.92;;;13.70;99.90;;;;;;4954960;29;20035;-72
2023/09/22 06:24:24;;;;;;;8.60;3.47;;;13.70;99.90;;;;;;4954280;29;20409;-71
2023/09/22 06:26:50;;;;;;;7.60;4.05;;;13.70;99.90;;;;;;4954618;29;20106;-72
2023/09/22 06:29:17;;;;;;;8.05;3.45;;;13.70;99.90;;;;;;4954121;29;20027;-72
2023/09/22 06:31:43;;;;;;;8.10;3.55;;;13.80;99.90;;;;;;4954559;29;20027;-72
2023/09/22 06:34:09;;;;;;;6.13;3.10;;;13.80;99.90;;;;;;4953989;29;20423;-72
2023/09/22 06:36:36;;;;;;;10.15;3.00;;;13.80;99.90;;;;;;4954632;29;20106;-72
2023/09/22 06:39:07;;;;;;;4.95;2.95;;;13.80;99.90;;;;;;4953738;29;20031;-72
2023/09/22 06:41:34;;;;;;;;;;;13.90;99.90;;;;;;4954782;29;20058;-72
2023/09/22 06:44:02;;;;;;;5.03;3.22;;;13.90;99.90;;;;;;4953765;29;20285;-72
2023/09/22 06:46:28;;;;;;;4.80;2.83;;;13.90;99.90;;;;;;4937270;29;20019;-72
2023/09/22 06:48:55;;;;;;;5.93;2.80;;;14.00;99.90;;;;;;4936392;29;20082;-72
2023/09/22 06:51:21;;;;;;;4.60;2.05;;;14.00;99.90;;;;;;4954159;29;20106;-72
2023/09/22 06:53:47;;;;;;;7.97;2.95;;;14.00;99.90;;;;;;4953540;29;20276;-72
2023/09/22 06:56:13;;;;;;;5.75;2.80;;;14.10;99.90;;;;;;4954241;29;20106;-72
2023/09/22 06:58:40;;;;;;;8.50;2.90;;;14.10;99.90;;;;;;4952338;29;20102;-72
2023/09/22 07:01:16;;;;;;;6.13;2.78;;;14.20;99.90;;;;;;4954171;29;20027;-72
2023/09/22 07:03:44;;;;;;;5.75;2.30;;;14.20;99.90;;;;;;4953504;29;20023;-72
2023/09/22 07:06:13;;;;;;;5.45;2.60;;;14.30;99.90;;;;;;4936891;29;20028;-72
2023/09/22 07:08:39;;;;;;;6.22;2.08;;;14.30;99.90;;;;;;4953362;28;20074;-72
2023/09/22 07:11:08;;;;;;;5.20;2.25;;;14.30;99.90;;;;;;4953249;29;20027;-72
2023/09/22 07:13:35;;;;;;;3.47;2.10;;;14.40;99.90;;;;;;4953320;29;20509;-72
2023/09/22 07:16:01;;;;;;;4.07;2.63;;;14.40;99.90;;;;;;4953927;29;20148;-72
2023/09/22 07:18:27;;;;;;;5.15;2.28;;;14.40;99.90;;;;;;4936357;29;20047;-72
2023/09/22 07:20:53;;;;;;;4.32;2.08;;;14.40;99.90;;;;;;4953915;29;20554;-72
2023/09/22 07:23:20;;;;;;;6.32;2.40;;;14.40;99.90;;;;;;4953626;29;20058;-72
2023/09/22 07:25:56;;;;;;;5.45;1.90;;;14.40;99.90;;;;;;4953750;29;20019;-73
2023/09/22 07:28:22;;;;;;;6.00;2.58;;;14.50;99.90;;;;;;4953528;29;20057;-72
2023/09/22 07:30:47;;;;;;;5.30;2.28;;;14.50;99.90;;;;;;4953471;29;20031;-71
2023/09/22 07:33:13;;;;;;;4.03;2.03;;;14.50;99.90;;;;;;4953356;29;20106;-71
2023/09/22 07:35:41;;;;;;;6.22;2.20;;;14.60;99.90;;;;;;4953729;29;20115;-71
2023/09/22 07:38:06;;;;;;;7.18;1.98;;;14.60;99.90;;;;;;4953596;29;20082;-71
2023/09/22 07:40:32;;;;;;;6.70;2.10;;;14.60;99.90;;;;;;4952903;29;20047;-70
2023/09/22 07:42:58;;;;;;;5.00;2.08;;;14.70;99.90;;;;;;4953694;29;20019;-70
2023/09/22 07:45:23;;;;;;;5.30;1.90;;;14.70;99.90;;;;;;4953099;29;20034;-70
2023/09/22 07:47:49;;;;;;;6.45;2.13;;;14.70;99.90;;;;;;4936528;29;20027;-70
2023/09/22 07:50:15;;;;;;;3.55;1.40;;;14.80;99.90;;;;;;4953186;29;20557;-70
2023/09/22 07:52:43;;;;;;;6.15;2.05;;;14.80;99.90;;;;;;4936180;29;20041;-70
2023/09/22 07:55:14;;;;;;;5.28;2.15;;;14.80;99.90;;;;;;4953003;29;20386;-70
2023/09/22 07:57:40;;;;;;;3.83;1.70;;;14.90;99.90;;;;;;4953629;29;20027;-70
2023/09/22 08:00:10;;;;;;;3.70;1.58;;;14.90;99.90;;;;;;4952798;29;20031;-70
2023/09/22 08:02:36;;;;;;;4.47;1.90;;;15.00;99.90;;;;;;4936377;29;20087;-70
2023/09/22 08:05:02;;;;;;;2.58;1.30;;;14.90;99.90;;;;;;4952995;29;20310;-70
2023/09/22 08:07:28;;;;;;;5.93;1.70;;;15.00;99.90;;;;;;4936201;29;20067;-70
2023/09/22 08:09:54;;;;;;;2.35;1.50;;;15.00;99.90;;;;;;4952867;29;20087;-70
2023/09/22 08:12:19;;;;;;;4.72;1.75;;;15.00;99.90;;;;;;4953429;29;20031;-70
2023/09/22 08:14:45;;;;;;;4.85;1.35;;;15.00;99.90;;;;;;4952704;29;20516;-70
2023/09/22 08:17:11;;;;;;;5.22;1.90;;;15.10;99.90;;;;;;4953443;29;20027;-70
2023/09/22 08:19:36;;;;;;;4.47;1.40;;;15.10;99.90;;;;;;4952773;29;20111;-70
2023/09/22 08:22:02;;;;;;;3.25;1.30;;;15.20;99.90;;;;;;4955678;28;20038;-71
2023/09/22 08:24:28;;;;;;;2.88;1.05;;;15.30;99.90;;;;;;4956283;29;20441;-70
2023/09/22 08:26:55;;;;;;;7.20;1.42;;;15.40;99.90;;;;;;4956859;29;20390;-70
2023/09/22 08:29:22;;;;;;;3.60;1.10;;;15.40;99.90;;;;;;4956115;29;20375;-70
2023/09/22 08:31:48;;;;;;;3.13;1.23;;;15.50;99.90;;;;;;4956747;29;20498;-71
2023/09/22 08:34:14;;;;;;;3.83;1.20;;;15.60;99.90;;;;;;4956279;29;20020;-71
2023/09/22 08:36:40;;;;;;;1.90;1.20;;;15.70;99.90;;;;;;4956801;29;20023;-70
2023/09/22 08:39:08;;;;;;;4.78;1.30;;;15.70;99.90;;;;;;4956310;29;20027;-70
2023/09/22 08:41:37;;;;;;;5.18;1.30;;;15.80;99.90;;;;;;4956760;29;20106;-70
2023/09/22 08:44:04;;;;;;;2.55;1.30;;;15.90;99.90;;;;;;4956160;29;20074;-70
2023/09/22 08:46:31;;;;;;;2.25;1.08;;;16.00;99.90;;;;;;4956563;29;20106;-70
2023/09/22 08:48:57;;;;;;;3.17;1.00;;;16.00;99.90;;;;;;4955823;29;20035;-70
2023/09/22 08:51:23;;;;;;;1.45;0.80;;;16.00;99.90;;;;;;4956304;29;20042;-70
2023/09/22 08:53:53;;;;;;;1.95;0.85;;;16.00;99.90;;;;;;4955934;29;20027;-70
2023/09/22 08:56:21;;;;;;;4.25;0.90;;;16.00;99.90;;;;;;4956347;29;20038;-70
2023/09/22 08:58:47;;;;;;;4.38;1.00;;;15.90;99.90;;;;;;4955808;29;20031;-70
2023/09/22 09:01:13;;;;;;;1.55;0.80;;;15.90;99.90;;;;;;4956243;29;20029;-70
2023/09/22 09:03:39;;;;;;;1.10;0.73;;;15.90;99.90;;;;;;4955809;29;20035;-71
2023/09/22 09:06:09;;;;;;;3.92;1.05;;;16.00;99.90;;;;;;4956125;29;20051;-71
2023/09/22 09:08:35;;;;;;;2.05;0.75;;;16.00;99.90;;;;;;4955613;28;20121;-70
2023/09/22 09:11:10;;;;;;;4.00;1.05;;;16.10;99.90;;;;;;4938593;29;20127;-70
2023/09/22 09:13:37;;;;;;;1.50;0.65;;;16.10;99.90;;;;;;4938551;29;20027;-70
2023/09/22 09:16:09;;;;;;;2.00;0.90;;;16.20;99.90;;;;;;4938543;29;20031;-70
2023/09/22 09:18:35;;;;;;;3.03;0.82;;;16.30;99.90;;;;;;4955580;29;20019;-70
2023/09/22 09:21:09;;;;;;;2.47;0.77;;;16.30;99.90;;;;;;4955749;29;20466;-71
2023/09/22 09:23:35;;;;;;;2.15;0.60;;;16.40;99.90;;;;;;4955452;29;20020;-71
2023/09/22 09:26:01;;;;;;;2.63;1.00;;;16.40;99.90;;;;;;4955849;29;20494;-71
2023/09/22 09:28:28;;;;;;;1.98;0.85;;;16.50;99.90;;;;;;4955541;29;20537;-71
2023/09/22 09:30:59;;;;;;;3.30;0.90;;;16.60;99.90;;;;;;4955449;29;20035;-71
2023/09/22 09:33:34;;;;;;;2.10;0.82;;;16.70;99.90;;;;;;4955112;28;20032;-71
2023/09/22 09:36:14;;;;;;;3.40;0.80;;;16.70;99.90;;;;;;4955333;29;20169;-71
2023/09/22 09:38:43;;;;;;;2.40;0.77;;;16.60;99.90;;;;;;4955095;29;20031;-72
2023/09/22 09:41:10;;;;;;;2.00;0.70;;;16.40;99.90;;;;;;4953185;29;20438;-71
2023/09/22 09:43:39;;;;;;;3.70;0.85;;;16.40;99.90;;;;;;4937822;29;20031;-72
2023/09/22 09:46:08;;;;;;;1.85;0.80;;;16.40;99.90;;;;;;4955248;29;20027;-71
2023/09/22 09:48:39;;;;;;;3.90;0.80;;;16.40;99.90;;;;;;4937970;29;20035;-72
2023/09/22 09:51:11;;;;;;;1.80;1.00;;;16.50;99.90;;;;;;4955085;29;20034;-71
2023/09/22 09:53:38;;;;;;;2.15;0.73;;;16.60;99.90;;;;;;4937863;29;20035;-72
2023/09/22 09:56:05;;;;;;;2.80;1.10;;;16.70;99.90;;;;;;4937680;29;20488;-72
2023/09/22 09:58:32;;;;;;;3.75;1.00;;;16.80;99.90;;;;;;4937849;29;20482;-72
2023/09/22 10:01:00;;;;;;;3.25;1.00;;;16.80;99.90;;;;;;4954840;29;20027;-72
2023/09/22 10:03:27;;;;;;;1.77;0.90;;;16.90;99.90;;;;;;4955066;29;20095;-72
2023/09/22 10:05:55;;;;;;;1.55;0.80;;;17.10;99.90;;;;;;4954662;29;20026;-71
2023/09/22 10:08:26;;;;;;;4.53;0.98;;;17.10;99.90;;;;;;4954923;28;20023;-71
2023/09/22 10:10:59;;;;;;;;;;;17.20;99.90;;;;;;4954911;29;20030;-71
2023/09/22 10:13:26;;;;;;;1.38;0.80;;;17.40;99.90;;;;;;4955137;29;19907;-72
2023/09/22 10:15:52;;;;;;;3.85;1.42;;;17.40;99.90;;;;;;4954365;29;20070;-72
2023/09/22 10:18:19;;;;;;;2.40;1.00;;;17.40;99.90;;;;;;4955162;29;20031;-72
2023/09/22 10:20:46;;;;;;;2.65;0.88;;;17.40;99.90;;;;;;4954133;29;20031;-71
2023/09/22 10:23:27;;;;;;;3.22;0.93;;;17.40;99.90;;;;;;4954943;29;20031;-71
2023/09/22 10:26:05;;;;;;;1.70;0.82;;;17.40;99.90;;;;;;4936983;29;20031;-72
2023/09/22 10:28:31;;;;;;;2.17;0.77;;;17.30;99.90;;;;;;4954643;29;20035;-71
2023/09/22 10:30:59;;;;;;;4.20;0.90;;;17.30;99.90;;;;;;4954194;29;20570;-71
2023/09/22 10:33:25;;;;;;;3.08;0.82;;;17.30;99.90;;;;;;4954792;29;20027;-71
2023/09/22 10:35:51;;;;;;;1.48;0.65;;;17.30;99.90;;;;;;4954047;29;20030;-71
2023/09/22 10:38:20;;;;;;;2.40;1.02;;;17.30;99.90;;;;;;4937301;29;20027;-71
2023/09/22 10:41:01;;;;;;;1.15;0.63;;;17.30;99.90;;;;;;4953696;29;20454;-72
2023/09/22 10:43:32;;;;;;;1.85;0.82;;;17.30;99.90;;;;;;4954612;28;20458;-72
2023/09/22 10:45:59;;;;;;;1.55;0.70;;;17.40;99.90;;;;;;4953741;29;20019;-72
2023/09/22 10:48:37;;;;;;;2.05;0.77;;;17.60;99.90;;;;;;4954400;29;20106;-72
2023/09/22 10:51:06;;;;;;;4.30;1.60;;;17.60;99.90;;;;;;4953629;29;20023;-72
2023/09/22 10:53:34;;;;;;;2.95;1.13;;;17.70;99.90;;;;;;4954322;29;20106;-71
2023/09/22 10:56:05;;;;;;;2.83;0.85;;;17.80;99.90;;;;;;4953562;29;20031;-71
2023/09/22 10:58:31;;;;;;;2.78;1.05;;;17.80;99.90;;;;;;4954317;29;20053;-72
2023/09/22 11:00:59;;;;;;;3.00;0.82;;;18.00;99.90;;;;;;4953665;29;20043;-71
2023/09/22 11:03:27;;;;;;;4.63;1.08;;;18.10;99.90;;;;;;4954228;29;20023;-71
2023/09/22 11:06:04;;;;;;;3.20;0.65;;;18.10;99.90;;;;;;4953469;29;20027;-72
2023/09/22 11:08:31;;;;;;;2.47;0.80;;;18.10;99.90;;;;;;4954066;28;20019;-72
2023/09/22 11:10:57;;;;;;;1.60;0.90;;;18.20;99.90;;;;;;4953522;29;20055;-72
2023/09/22 11:13:23;;;;;;;2.03;0.70;;;18.20;99.90;;;;;;4954217;29;20053;-71
2023/09/22 11:15:59;;;;;;;2.25;0.85;;;18.40;99.90;;;;;;4953303;29;20030;-71
2023/09/22 11:18:32;;;;;;;1.63;0.60;;;18.50;99.90;;;;;;4953997;29;20025;-70
2023/09/22 11:21:05;;;;;;;0.88;0.45;;;18.50;99.90;;;;;;4953583;29;20023;-70
2023/09/22 11:23:31;;;;;;;0.55;0.40;;;18.50;99.90;;;;;;4953922;29;20023;-71
2023/09/22 11:25:59;;;;;;;1.15;0.80;;;18.60;99.90;;;;;;4953287;29;20111;-71
2023/09/22 11:28:26;;;;;;;2.72;0.80;;;18.70;99.90;;;;;;4953820;29;20054;-71
2023/09/22 11:30:53;;;;;;;2.15;0.70;;;18.80;99.90;;;;;;4953457;29;20031;-72
2023/09/22 11:33:19;;;;;;;1.92;0.80;;;18.90;99.90;;;;;;4953836;29;20398;-71
2023/09/22 11:35:47;;;;;;;3.90;0.90;;;19.00;99.90;;;;;;4953427;29;20030;-71
2023/09/22 11:38:27;;;;;;;1.40;0.60;;;19.10;99.90;;;;;;4953950;29;20074;-69
2023/09/22 11:41:08;;;;;;;3.28;0.75;;;19.10;99.90;;;;;;4953080;29;20418;-70
2023/09/22 11:43:41;;;;;;;;;;;19.10;99.90;;;;;;4954156;29;20024;-69
2023/09/22 11:46:13;;;;;;;1.92;0.75;;;18.90;99.90;;;;;;4953215;29;20001;-69
2023/09/22 11:49:07;;;;;;;4.68;1.15;;;18.70;99.90;;;;;;4953873;29;20028;-69
2023/09/22 11:51:51;;;;;;;2.72;0.80;;;18.60;99.90;;;;;;4936338;29;20053;-69
2023/09/22 11:54:19;;;;;;;2.72;0.80;;;18.50;99.90;;;;;;4936338;29;20482;-69
2023/09/22 11:56:46;;;;;;;3.53;0.75;;;18.40;99.90;;;;;;4955321;28;20055;-69
2023/09/22 11:59:18;;;;;;;2.88;0.95;;;18.40;99.90;;;;;;4956980;29;20031;-69
2023/09/22 12:01:45;;;;;;;;;;;18.40;99.90;;;;;;4957588;29;20031;-72
2023/09/22 12:04:10;;;;;;;5.72;1.13;;;18.50;99.90;;;;;;4956932;29;19907;-69
2023/09/22 12:06:40;;;;;;;1.10;0.52;;;18.50;99.90;;;;;;4939690;28;20058;-70
2023/09/22 12:09:08;;;;;;;2.70;1.02;;;18.50;99.90;;;;;;4956731;29;20482;-69
2023/09/22 12:11:34;;;;;;;1.85;0.68;;;18.50;99.90;;;;;;4956972;29;20035;-72
2023/09/22 12:14:00;;;;;;;1.55;0.77;;;18.40;99.90;;;;;;4957020;29;20046;-69
2023/09/22 12:16:27;;;;;;;2.25;1.15;;;18.40;99.90;;;;;;4956708;29;20031;-72
2023/09/22 12:18:52;;;;;;;2.17;0.70;;;18.40;99.90;;;;;;4957020;29;20031;-69
2023/09/22 12:21:19;;;;;;;1.25;0.60;;;18.40;99.90;;;;;;4956301;29;20386;-72
2023/09/22 12:23:44;;;;;;;2.60;0.80;;;18.50;99.90;;;;;;4957211;29;20036;-72
2023/09/22 12:26:10;;;;;;;2.95;0.80;;;18.60;99.90;;;;;;4956408;29;20500;-70
2023/09/22 12:28:37;;;;;;;1.83;0.77;;;18.60;99.90;;;;;;4956863;29;20534;-70
2023/09/22 12:31:06;;;;;;;2.63;0.60;;;18.60;99.90;;;;;;4956120;29;20035;-69
2023/09/22 12:33:32;;;;;;;1.23;0.60;;;18.60;99.90;;;;;;4939504;29;20026;-69
2023/09/22 12:35:58;;;;;;;2.75;0.82;;;18.70;99.90;;;;;;4956131;29;20144;-69
2023/09/22 12:38:25;;;;;;;1.67;0.80;;;18.70;99.90;;;;;;4956582;29;20515;-69
2023/09/22 12:40:51;;;;;;;2.20;0.70;;;18.80;99.90;;;;;;4942323;29;20187;-69